createdAt,value
2019-04-11T00:00:37.186Z,49.88
2019-04-11T00:03:06.518Z,50.67
2019-04-11T00:05:36.981Z,51.08
2019-04-11T00:08:06.436Z,51.92
2019-04-11T00:10:37.407Z,51.53
2019-04-11T00:13:17.273Z,50.58
2019-04-11T00:15:38.732Z,50.52
2019-04-11T00:18:08.341Z,49.33
2019-04-11T00:20:37.617Z,50.75
2019-04-11T00:23:08.051Z,50.90
2019-04-11T00:25:37.821Z,50.17
2019-04-11T00:28:07.756Z,48.95
2019-04-11T00:30:37.333Z,51.40
2019-04-11T00:33:07.776Z,49.23
2019-04-11T00:35:37.347Z,52.80
2019-04-11T00:38:07.644Z,50.28
2019-04-11T00:40:37.453Z,48.68
2019-04-11T00:43:07.342Z,49.25
2019-04-11T00:45:37.971Z,50.03
2019-04-11T00:48:07.428Z,50.00
2019-04-11T00:50:37.212Z,50.00
2019-04-11T00:53:06.606Z,48.45
2019-04-11T00:55:35.863Z,50.30
2019-04-11T00:58:05.571Z,49.27
2019-04-11T01:00:35.530Z,50.73
2019-04-11T01:03:06.485Z,48.98
2019-04-11T01:05:36.017Z,47.25
2019-04-11T01:08:07.526Z,46.83
2019-04-11T01:10:36.978Z,49.65
2019-04-11T01:13:07.144Z,47.83
2019-04-11T01:15:38.593Z,45.00
2019-04-11T01:18:07.895Z,47.30
2019-04-11T01:20:37.725Z,47.13
2019-04-11T01:23:07.134Z,47.08
2019-04-11T01:25:36.861Z,44.93
2019-04-11T01:28:06.787Z,44.77
2019-04-11T01:30:41.073Z,44.03
2019-04-11T01:33:10.872Z,43.23
2019-04-11T01:35:40.211Z,39.45
2019-04-11T01:38:10.332Z,34.00
2019-04-11T01:40:40.114Z,30.85
2019-04-11T01:43:09.520Z,29.48
2019-04-11T01:45:38.928Z,23.73
2019-04-11T01:48:19.575Z,23.57
2019-04-11T01:50:50.217Z,21.33
2019-04-11T01:53:20.015Z,20.05
2019-04-11T01:55:50.430Z,20.52
2019-04-11T01:58:19.767Z,20.32
2019-04-11T02:00:56.915Z,21.25
2019-04-11T02:03:30.857Z,20.08
2019-04-11T02:06:01.209Z,19.73
2019-04-11T02:08:31.293Z,19.30
2019-04-11T02:11:01.346Z,20.95
2019-04-11T02:13:30.700Z,18.87
2019-04-11T02:16:01.333Z,19.00
2019-04-11T02:18:31.587Z,18.87
2019-04-11T02:21:01.054Z,19.32
2019-04-11T02:23:35.103Z,19.67
2019-04-11T02:26:07.065Z,18.20
2019-04-11T02:28:37.022Z,18.55
2019-04-11T02:31:09.085Z,19.55
2019-04-11T02:33:38.793Z,18.95
2019-04-11T02:36:11.299Z,18.20
2019-04-11T02:38:41.046Z,18.05
2019-04-11T02:41:11.971Z,18.32
2019-04-11T02:43:44.149Z,17.90
2019-04-11T02:46:21.793Z,17.62
2019-04-11T02:48:42.851Z,17.52
2019-04-11T02:51:14.493Z,17.02
2019-04-11T02:53:44.990Z,18.25
2019-04-11T02:56:14.911Z,17.70
2019-04-11T02:58:46.318Z,17.20
2019-04-11T03:01:15.633Z,16.67
2019-04-11T03:03:45.501Z,19.23
2019-04-11T03:06:15.320Z,17.80
2019-04-11T03:08:44.626Z,17.42
2019-04-11T03:11:14.346Z,17.45
2019-04-11T03:13:44.427Z,17.52
2019-04-11T03:16:29.379Z,17.80
2019-04-11T03:19:00.642Z,17.73
2019-04-11T03:21:20.362Z,18.60
2019-04-11T03:23:46.984Z,18.57
2019-04-11T03:26:18.912Z,19.02
2019-04-11T03:28:50.233Z,17.80
2019-04-11T03:32:08.152Z,17.02
2019-04-11T03:37:08.856Z,18.48
2019-04-11T03:39:10.546Z,19.32
2019-04-11T03:41:39.987Z,18.05
2019-04-11T03:44:00.337Z,19.62
2019-04-11T03:46:40.405Z,18.57
2019-04-11T03:49:03.909Z,18.82
2019-04-11T03:51:27.725Z,19.85
2019-04-11T03:53:59.165Z,25.05
2019-04-11T03:56:28.689Z,16.67
2019-04-11T03:58:58.460Z,18.23
2019-04-11T04:01:29.471Z,16.67
2019-04-11T04:04:00.475Z,16.77
2019-04-11T04:06:31.020Z,17.50
2019-04-11T04:09:02.589Z,18.02
2019-04-11T04:11:34.256Z,16.57
2019-04-11T04:14:17.798Z,18.45
2019-04-11T04:16:59.130Z,17.20
2019-04-11T04:19:32.657Z,17.27
2019-04-11T04:22:07.312Z,16.75
2019-04-11T04:24:39.940Z,18.23
2019-04-11T04:27:09.949Z,16.23
2019-04-11T04:29:41.108Z,17.05
2019-04-11T04:32:11.955Z,15.68
2019-04-11T04:34:42.259Z,17.30
2019-04-11T04:37:12.193Z,16.55
2019-04-11T04:39:43.565Z,15.70
2019-04-11T04:42:23.555Z,16.32
2019-04-11T04:44:45.189Z,17.02
2019-04-11T04:47:22.115Z,17.50
2019-04-11T04:49:46.015Z,15.25
2019-04-11T04:52:16.599Z,16.20
2019-04-11T04:54:46.575Z,16.23
2019-04-11T04:57:18.256Z,16.12
2019-04-11T04:59:48.990Z,15.63
2019-04-11T05:02:20.051Z,16.95
2019-04-11T05:04:49.624Z,15.08
2019-04-11T05:07:19.445Z,15.65
2019-04-11T05:09:50.329Z,15.98
2019-04-11T05:12:22.471Z,16.23
2019-04-11T05:14:52.181Z,14.85
2019-04-11T05:17:23.108Z,15.80
2019-04-11T05:19:54.414Z,14.50
2019-04-11T05:22:24.642Z,14.50
2019-04-11T05:24:55.550Z,14.47
2019-04-11T05:27:25.145Z,16.32
2019-04-11T05:29:54.486Z,15.15
2019-04-11T05:32:24.250Z,16.60
2019-04-11T05:34:54.747Z,15.70
2019-04-11T05:37:24.010Z,15.38
2019-04-11T05:39:53.503Z,15.20
2019-04-11T05:42:25.546Z,20.90
2019-04-11T05:44:54.696Z,15.63
2019-04-11T05:47:25.500Z,15.75
2019-04-11T05:50:07.584Z,14.85
2019-04-11T05:52:35.178Z,15.20
2019-04-11T05:55:11.488Z,15.35
2019-04-11T05:57:41.476Z,14.38
2019-04-11T06:00:19.555Z,14.25
2019-04-11T06:02:57.423Z,15.00
2019-04-11T06:05:36.043Z,15.40
2019-04-11T06:08:07.799Z,15.83
2019-04-11T06:10:42.795Z,15.25
2019-04-11T06:13:28.810Z,13.72
2019-04-11T06:16:02.625Z,15.28
2019-04-11T06:18:37.757Z,15.18
2019-04-11T06:21:09.985Z,14.83
2019-04-11T06:23:47.631Z,15.35
2019-04-11T06:26:35.065Z,16.10
2019-04-11T06:29:17.451Z,15.75
2019-04-11T06:31:59.239Z,14.95
2019-04-11T06:34:30.413Z,15.93
2019-04-11T06:37:05.522Z,15.63
2019-04-11T06:39:39.784Z,14.87
2019-04-11T06:42:10.835Z,15.65
2019-04-11T06:44:41.772Z,15.83
2019-04-11T06:47:29.183Z,15.95
2019-04-11T06:50:02.910Z,15.58
2019-04-11T06:52:34.946Z,17.48
2019-04-11T06:55:07.250Z,18.70
2019-04-11T06:57:40.842Z,18.77
2019-04-11T07:00:14.738Z,17.15
2019-04-11T07:03:05.489Z,16.57
2019-04-11T07:05:36.611Z,16.30
2019-04-11T07:08:07.676Z,16.45
2019-04-11T07:10:42.461Z,16.80
2019-04-11T07:13:30.482Z,17.92
2019-04-11T07:16:00.474Z,17.45
2019-04-11T07:18:35.606Z,17.00
2019-04-11T07:21:06.664Z,16.05
2019-04-11T07:23:55.440Z,15.95
2019-04-11T07:26:33.077Z,16.85
2019-04-11T07:29:07.114Z,15.45
2019-04-11T07:31:48.190Z,15.85
2019-04-11T07:34:36.183Z,16.75
2019-04-11T07:37:23.700Z,16.20
2019-04-11T07:39:58.597Z,16.87
2019-04-11T07:42:46.859Z,15.65
2019-04-11T07:45:20.947Z,17.35
2019-04-11T07:47:52.647Z,17.23
2019-04-11T07:50:23.130Z,16.48
2019-04-11T07:53:04.885Z,17.50
2019-04-11T07:55:34.847Z,16.60
2019-04-11T07:58:13.050Z,16.87
2019-04-11T08:01:01.440Z,16.37
2019-04-11T08:03:49.208Z,17.55
2019-04-11T08:06:37.063Z,15.83
2019-04-11T08:09:24.644Z,16.77
2019-04-11T08:11:58.385Z,16.90
2019-04-11T08:14:30.645Z,15.83
2019-04-11T08:17:25.440Z,15.68
2019-04-11T08:19:46.922Z,17.85
2019-04-11T08:22:33.012Z,16.73
2019-04-11T08:25:13.295Z,18.40
2019-04-11T08:28:01.383Z,16.60
2019-04-11T08:30:29.146Z,16.93
2019-04-11T08:33:04.393Z,16.82
2019-04-11T08:35:38.297Z,18.65
2019-04-11T08:38:09.918Z,17.30
2019-04-11T08:40:49.901Z,18.50
2019-04-11T08:43:23.795Z,17.90
2019-04-11T08:46:11.259Z,17.30
2019-04-11T08:48:48.979Z,17.35
2019-04-11T08:51:20.059Z,16.77
2019-04-11T08:54:07.562Z,23.27
2019-04-11T08:56:39.534Z,18.95
2019-04-11T08:59:21.529Z,18.52
2019-04-11T09:01:51.879Z,17.23
2019-04-11T09:04:40.012Z,19.73
2019-04-11T09:07:11.656Z,18.77
2019-04-11T09:09:59.833Z,17.60
2019-04-11T09:12:29.302Z,17.82
2019-04-11T09:17:56.502Z,18.13
2019-04-11T09:20:38.076Z,19.82
2019-04-11T09:23:07.698Z,20.40
2019-04-11T09:25:41.362Z,18.45
2019-04-11T09:28:13.299Z,18.40
2019-04-11T09:30:57.012Z,18.82
2019-04-11T09:33:35.062Z,20.82
2019-04-11T09:36:22.360Z,18.57
2019-04-11T09:38:53.259Z,22.02
2019-04-11T09:41:42.724Z,19.77
2019-04-11T09:44:14.646Z,20.12
2019-04-11T09:47:03.870Z,21.10
2019-04-11T09:49:43.431Z,19.98
2019-04-11T09:52:17.057Z,20.12
2019-04-11T09:54:48.458Z,21.23
2019-04-11T09:57:26.751Z,20.52
2019-04-11T10:00:14.264Z,20.65
2019-04-11T10:02:48.426Z,21.50
2019-04-11T10:05:20.146Z,24.15
2019-04-11T10:08:08.578Z,23.10
2019-04-11T10:10:41.866Z,21.70
2019-04-11T10:13:18.640Z,22.42
2019-04-11T10:16:00.154Z,23.05
2019-04-11T10:18:49.551Z,22.60
2019-04-11T10:21:21.270Z,23.22
2019-04-11T10:24:09.533Z,25.35
2019-04-11T10:26:56.305Z,23.60
2019-04-11T10:29:34.515Z,23.32
2019-04-11T10:32:05.152Z,23.85
2019-04-11T10:34:37.480Z,24.00
2019-04-11T10:37:09.591Z,24.95
2019-04-11T10:39:53.582Z,24.05
2019-04-11T10:42:24.434Z,24.63
2019-04-11T10:44:58.356Z,25.15
2019-04-11T10:47:29.323Z,24.47
2019-04-11T10:50:00.897Z,24.90
2019-04-11T10:52:31.915Z,23.87
2019-04-11T10:55:05.827Z,25.10
2019-04-11T10:57:46.694Z,23.10
2019-04-11T11:00:23.600Z,23.80
2019-04-11T11:02:55.740Z,23.10
2019-04-11T11:05:26.655Z,22.95
2019-04-11T11:07:57.627Z,23.12
2019-04-11T11:10:28.871Z,24.27
2019-04-11T11:13:12.018Z,23.40
2019-04-11T11:15:42.638Z,24.35
2019-04-11T11:19:01.932Z,24.32
2019-04-11T11:21:00.278Z,24.30
2019-04-11T11:23:46.026Z,23.62
2019-04-11T11:26:21.430Z,24.85
2019-04-11T11:29:09.927Z,24.72
2019-04-11T11:31:44.780Z,24.98
2019-04-11T11:34:20.337Z,23.70
2019-04-11T11:36:53.549Z,25.02
2019-04-11T11:39:26.908Z,24.45
2019-04-11T11:42:14.606Z,26.12
2019-04-11T11:44:55.292Z,26.25
2019-04-11T11:47:42.000Z,25.82
2019-04-11T11:50:18.135Z,25.92
2019-04-11T11:52:46.619Z,25.75
2019-04-11T11:55:20.058Z,25.40
2019-04-11T11:57:51.008Z,25.15
2019-04-11T12:00:23.480Z,26.55
2019-04-11T12:03:03.758Z,26.00
2019-04-11T12:05:34.803Z,26.02
2019-04-11T12:08:08.787Z,25.52
2019-04-11T12:10:41.646Z,26.90
2019-04-11T12:13:28.335Z,25.92
2019-04-11T12:16:18.274Z,27.98
2019-04-11T12:19:04.626Z,26.60
2019-04-11T12:21:36.675Z,27.60
2019-04-11T12:24:25.086Z,27.75
2019-04-11T12:27:02.402Z,27.87
2019-04-11T12:29:44.402Z,27.67
2019-04-11T12:32:14.796Z,28.00
2019-04-11T12:34:51.599Z,27.87
2019-04-11T12:37:22.640Z,28.25
2019-04-11T12:40:09.700Z,29.48
2019-04-11T12:42:40.764Z,29.55
2019-04-11T12:45:20.182Z,30.12
2019-04-11T12:47:49.643Z,29.23
2019-04-11T12:50:35.537Z,28.80
2019-04-11T12:53:06.483Z,27.95
2019-04-11T12:55:37.373Z,30.57
2019-04-11T12:58:08.414Z,30.72
2019-04-11T13:00:51.427Z,31.85
2019-04-11T13:03:31.242Z,30.57
2019-04-11T13:06:02.152Z,30.20
2019-04-11T13:08:48.254Z,32.15
2019-04-11T13:11:19.271Z,30.10
2019-04-11T13:13:58.783Z,33.33
2019-04-11T13:16:28.550Z,31.35
2019-04-11T13:19:16.939Z,29.65
2019-04-11T13:21:50.810Z,31.90
2019-04-11T13:24:39.714Z,32.10
2019-04-11T13:27:13.091Z,31.52
2019-04-11T13:29:44.047Z,31.68
2019-04-11T13:32:33.187Z,32.93
2019-04-11T13:35:10.154Z,32.10
2019-04-11T13:37:57.574Z,32.03
2019-04-11T13:40:28.680Z,31.93
2019-04-11T13:43:16.055Z,33.80
2019-04-11T13:45:52.818Z,31.65
2019-04-11T13:48:39.112Z,33.78
2019-04-11T13:51:25.515Z,32.67
2019-04-11T13:54:12.867Z,33.78
2019-04-11T13:56:52.626Z,33.83
2019-04-11T13:59:35.778Z,32.23
2019-04-11T14:02:17.259Z,32.70
2019-04-11T14:04:51.111Z,34.50
2019-04-11T14:07:23.619Z,33.98
2019-04-11T14:10:05.638Z,34.00
2019-04-11T14:12:35.004Z,34.23
2019-04-11T14:15:07.844Z,34.45
2019-04-11T14:17:53.975Z,34.20
2019-04-11T14:20:29.830Z,36.77
2019-04-11T14:23:00.236Z,35.00
2019-04-11T14:25:47.398Z,35.73
2019-04-11T14:28:18.318Z,33.35
2019-04-11T14:30:52.209Z,35.78
2019-04-11T14:33:23.567Z,34.25
2019-04-11T14:35:58.370Z,36.23
2019-04-11T14:38:32.045Z,36.17
2019-04-11T14:41:12.903Z,36.10
2019-04-11T14:43:56.255Z,35.48
2019-04-11T14:46:42.154Z,36.17
2019-04-11T14:49:12.194Z,35.98
2019-04-11T14:51:59.443Z,35.63
2019-04-11T14:54:30.442Z,36.08
2019-04-11T14:57:16.762Z,36.17
2019-04-11T14:59:54.038Z,34.60
2019-04-11T15:02:37.627Z,35.45
2019-04-11T15:05:14.567Z,35.30
2019-04-11T15:07:46.066Z,35.78
2019-04-11T15:10:29.738Z,36.38
2019-04-11T15:13:00.306Z,36.25
2019-04-11T15:15:31.239Z,37.08
2019-04-11T15:18:02.342Z,35.17
2019-04-11T15:20:54.661Z,35.45
2019-04-11T15:23:21.234Z,35.92
2019-04-11T15:26:10.091Z,35.33
2019-04-11T15:28:43.699Z,36.03
2019-04-11T15:31:18.491Z,36.63
2019-04-11T15:34:05.137Z,33.53
2019-04-11T15:36:36.307Z,33.80
2019-04-11T15:39:23.920Z,33.55
2019-04-11T15:42:01.887Z,33.53
2019-04-11T15:44:36.494Z,35.13
2019-04-11T15:47:07.427Z,35.65
2019-04-11T15:49:38.391Z,35.05
2019-04-11T15:52:09.271Z,36.65
2019-04-11T15:54:40.182Z,34.18
2019-04-11T15:57:13.859Z,33.25
2019-04-11T15:59:57.145Z,35.88
2019-04-11T16:02:31.131Z,35.30
2019-04-11T16:05:02.842Z,35.90
2019-04-11T16:07:37.338Z,37.38
2019-04-11T16:10:11.699Z,36.23
2019-04-11T16:12:40.751Z,34.25
2019-04-11T16:15:11.659Z,34.23
2019-04-11T16:17:58.779Z,35.23
2019-04-11T16:20:28.054Z,35.13
2019-04-11T16:23:15.485Z,36.13
2019-04-11T16:25:46.466Z,36.50
2019-04-11T16:28:35.794Z,35.30
2019-04-11T16:31:05.483Z,36.80
2019-04-11T16:33:45.853Z,34.50
2019-04-11T16:36:17.690Z,35.33
2019-04-11T16:38:49.791Z,34.65
2019-04-11T16:41:37.748Z,35.13
2019-04-11T16:44:18.471Z,35.85
2019-04-11T16:47:08.239Z,34.70
2019-04-11T16:49:36.915Z,33.42
2019-04-11T16:52:08.368Z,33.90
2019-04-11T16:54:39.781Z,35.35
2019-04-11T16:57:08.066Z,34.98
2019-04-11T16:59:37.359Z,33.73
2019-04-11T17:02:06.667Z,35.68
2019-04-11T17:04:36.038Z,33.90
2019-04-11T17:07:23.805Z,33.83
2019-04-11T17:09:56.920Z,35.35
2019-04-11T17:12:27.233Z,34.48
2019-04-11T17:14:56.697Z,35.50
2019-04-11T17:17:26.378Z,34.27
2019-04-11T17:19:55.683Z,35.10
2019-04-11T17:22:24.990Z,34.40
2019-04-11T17:24:54.238Z,33.53
2019-04-11T17:27:23.783Z,35.15
2019-04-11T17:29:55.388Z,35.10
2019-04-11T17:32:25.948Z,34.40
2019-04-11T17:34:55.986Z,35.10
2019-04-11T17:37:25.283Z,32.53
2019-04-11T17:39:54.618Z,33.90
2019-04-11T17:42:23.970Z,33.83
2019-04-11T17:44:53.247Z,33.75
2019-04-11T17:47:26.767Z,32.98
2019-04-11T17:49:53.505Z,32.65
2019-04-11T17:52:22.932Z,33.50
2019-04-11T17:54:54.344Z,34.05
2019-04-11T17:57:26.727Z,34.05
2019-04-11T17:59:56.789Z,32.03
2019-04-11T18:02:25.395Z,34.10
2019-04-11T18:04:54.675Z,34.13
2019-04-11T18:07:23.979Z,32.73
2019-04-11T18:09:55.748Z,34.43
2019-04-11T18:12:26.213Z,31.55
2019-04-11T18:14:55.160Z,30.92
2019-04-11T18:17:26.503Z,31.02
2019-04-11T18:19:56.019Z,29.37
2019-04-11T18:22:25.379Z,30.00
2019-04-11T18:24:54.683Z,29.72
2019-04-11T18:27:23.946Z,29.80
2019-04-11T18:29:53.643Z,29.27
2019-04-11T18:32:23.174Z,29.30
2019-04-11T18:34:52.535Z,28.00
2019-04-11T18:37:21.802Z,28.70
2019-04-11T18:39:51.087Z,28.12
2019-04-11T18:42:20.392Z,27.20
2019-04-11T18:44:49.652Z,27.15
2019-04-11T18:47:18.911Z,27.85
2019-04-11T18:49:48.307Z,26.45
2019-04-11T18:52:19.889Z,27.22
2019-04-11T18:54:48.599Z,25.97
2019-04-11T18:57:17.930Z,23.92
2019-04-11T18:59:47.199Z,25.62
2019-04-11T19:02:16.487Z,26.80
2019-04-11T19:04:45.826Z,25.25
2019-04-11T19:07:27.152Z,24.92
2019-04-11T19:09:46.511Z,26.33
2019-04-11T19:12:16.430Z,41.58
2019-04-11T19:14:46.111Z,27.13
2019-04-11T19:17:16.442Z,26.05
2019-04-11T19:19:48.663Z,24.65
2019-04-11T19:22:19.404Z,24.95
2019-04-11T19:24:48.687Z,24.72
2019-04-11T19:27:20.494Z,24.55
2019-04-11T19:29:48.850Z,24.98
2019-04-11T19:32:18.480Z,23.57
2019-04-11T19:34:47.739Z,23.60
2019-04-11T19:37:17.032Z,24.02
2019-04-11T19:39:46.382Z,21.12
2019-04-11T19:42:18.745Z,23.32
2019-04-11T19:44:49.441Z,22.85
2019-04-11T19:47:21.389Z,21.73
2019-04-11T19:49:48.481Z,22.45
2019-04-11T19:52:17.815Z,22.27
2019-04-11T19:54:47.166Z,21.60
2019-04-11T19:57:16.427Z,23.05
2019-04-11T19:59:45.771Z,22.82
2019-04-11T20:02:15.031Z,23.57
2019-04-11T20:04:46.513Z,22.15
2019-04-11T20:07:15.274Z,22.73
2019-04-11T20:09:44.560Z,22.95
2019-04-11T20:12:13.825Z,23.02
2019-04-11T20:14:43.107Z,21.37
2019-04-11T20:17:12.527Z,22.13
2019-04-11T20:19:41.883Z,21.10
2019-04-11T20:22:11.144Z,22.27
2019-04-11T20:24:40.498Z,22.22
2019-04-11T20:27:09.778Z,20.77
2019-04-11T20:29:39.046Z,20.80
2019-04-11T20:32:08.303Z,22.05
2019-04-11T20:34:38.480Z,22.02
2019-04-11T20:37:12.655Z,21.25
2019-04-11T20:39:39.327Z,21.55
2019-04-11T20:42:08.604Z,21.40
2019-04-11T20:44:37.871Z,21.65
2019-04-11T20:47:07.236Z,20.70
2019-04-11T20:49:38.159Z,21.20
2019-04-11T20:52:07.443Z,21.00
2019-04-11T20:54:38.513Z,21.35
2019-04-11T20:57:11.910Z,20.97
2019-04-11T20:59:42.254Z,22.22
2019-04-11T21:02:09.468Z,21.48
2019-04-11T21:04:38.760Z,20.92
2019-04-11T21:07:08.043Z,22.13
2019-04-11T21:09:37.305Z,21.95
2019-04-11T21:12:07.482Z,22.32
2019-04-11T21:14:37.515Z,21.48
2019-04-11T21:17:06.849Z,19.42
2019-04-11T21:19:36.123Z,21.37
2019-04-11T21:22:06.378Z,20.88
2019-04-11T21:24:35.635Z,21.97
2019-04-11T21:27:05.459Z,21.48
2019-04-11T21:29:34.763Z,21.40
2019-04-11T21:32:04.048Z,21.17
2019-04-11T21:34:33.312Z,20.65
2019-04-11T21:37:02.812Z,21.82
2019-04-11T21:39:32.152Z,20.45
2019-04-11T21:42:05.695Z,22.05
2019-04-11T21:44:35.986Z,20.32
2019-04-11T21:47:03.204Z,21.55
2019-04-11T21:49:36.629Z,20.92
2019-04-11T21:52:03.374Z,20.72
2019-04-11T21:54:33.127Z,19.77
2019-04-11T21:57:03.359Z,20.20
2019-04-11T21:59:32.642Z,20.40
2019-04-11T22:02:01.907Z,20.92
2019-04-11T22:04:31.379Z,21.05
2019-04-11T22:07:01.440Z,19.90
2019-04-11T22:09:32.980Z,21.15
2019-04-11T22:12:01.886Z,20.77
2019-04-11T22:14:31.343Z,21.15
2019-04-11T22:17:00.602Z,20.12
2019-04-11T22:19:29.892Z,19.57
2019-04-11T22:21:59.146Z,19.85
2019-04-11T22:24:28.435Z,20.48
2019-04-11T22:26:57.695Z,21.75
2019-04-11T22:29:28.355Z,19.85
2019-04-11T22:31:57.642Z,19.37
2019-04-11T22:34:38.831Z,20.52
2019-04-11T22:37:08.127Z,20.65
2019-04-11T22:39:37.381Z,19.55
2019-04-11T22:42:06.803Z,19.45
2019-04-11T22:44:37.942Z,19.12
2019-04-11T22:47:08.033Z,19.12
2019-04-11T22:49:39.368Z,19.02
2019-04-11T22:52:11.355Z,19.12
2019-04-11T22:54:41.215Z,19.55
2019-04-11T22:57:12.181Z,19.35
2019-04-11T22:59:43.867Z,19.25
2019-04-11T23:02:16.860Z,20.10
2019-04-11T23:04:47.173Z,19.50
2019-04-11T23:07:17.784Z,19.42
2019-04-11T23:09:48.902Z,18.60
2019-04-11T23:12:17.826Z,19.12
2019-04-11T23:14:47.100Z,19.65
2019-04-11T23:17:16.402Z,20.15
2019-04-11T23:19:45.735Z,18.82
2019-04-11T23:22:15.023Z,18.95
2019-04-11T23:24:44.288Z,19.20
2019-04-11T23:27:13.571Z,19.65
2019-04-11T23:29:44.772Z,20.02
2019-04-11T23:32:13.775Z,19.42
2019-04-11T23:34:43.055Z,18.62
2019-04-11T23:37:12.322Z,20.10
2019-04-11T23:39:41.607Z,19.00
2019-04-11T23:42:10.871Z,19.32
2019-04-11T23:44:40.151Z,18.50
2019-04-11T23:47:09.478Z,19.77
2019-04-11T23:49:38.766Z,20.05
2019-04-11T23:52:08.027Z,18.92
2019-04-11T23:54:37.310Z,18.92
2019-04-11T23:57:06.584Z,20.97
2019-04-11T23:59:35.859Z,19.42
